sensor_id;sensor_type;location;lat;lon;timestamp;pressure;altitude;pressure_sealevel;temperature;humidity
4085;BME280;2057;50.858;6.572;2024-02-23T01:52:15;97966.66;;;4.62;100.00
4085;BME280;2057;50.858;6.572;2024-02-23T01:54:40;97970.69;;;4.57;100.00
4085;BME280;2057;50.858;6.572;2024-02-23T01:57:07;97962.25;;;4.55;100.00
4085;BME280;2057;50.858;6.572;2024-02-23T01:59:35;97981.53;;;4.56;100.00
4085;BME280;2057;50.858;6.572;2024-02-23T02:02:03;97965.03;;;4.64;100.00
4085;BME280;2057;50.858;6.572;2024-02-23T02:04:28;97975.00;;;4.61;100.00
4085;BME280;2057;50.858;6.572;2024-02-23T02:06:54;97982.38;;;4.55;100.00
4085;BME280;2057;50.858;6.572;2024-02-23T02:09:20;97965.75;;;4.60;100.00
4085;BME280;2057;50.858;6.572;2024-02-23T02:11:46;97982.25;;;4.52;100.00
4085;BME280;2057;50.858;6.572;2024-02-23T02:14:12;97980.94;;;4.63;100.00
4085;BME280;2057;50.858;6.572;2024-02-23T02:16:38;97981.78;;;4.64;100.00
4085;BME280;2057;50.858;6.572;2024-02-23T02:19:04;97991.88;;;4.65;100.00
4085;BME280;2057;50.858;6.572;2024-02-23T02:21:31;97989.47;;;4.68;100.00
4085;BME280;2057;50.858;6.572;2024-02-23T02:23:56;97984.19;;;4.61;100.00
4085;BME280;2057;50.858;6.572;2024-02-23T02:26:21;97984.16;;;4.59;100.00
4085;BME280;2057;50.858;6.572;2024-02-23T02:28:49;97984.25;;;4.62;100.00
4085;BME280;2057;50.858;6.572;2024-02-23T02:31:14;97989.06;;;4.56;100.00
4085;BME280;2057;50.858;6.572;2024-02-23T02:33:40;97992.41;;;4.55;100.00
4085;BME280;2057;50.858;6.572;2024-02-23T02:36:06;97991.66;;;4.58;100.00
4085;BME280;2057;50.858;6.572;2024-02-23T02:38:31;98010.06;;;4.58;100.00
4085;BME280;2057;50.858;6.572;2024-02-23T02:40:58;98008.44;;;4.59;100.00
4085;BME280;2057;50.858;6.572;2024-02-23T02:43:26;97999.22;;;4.59;100.00
4085;BME280;2057;50.858;6.572;2024-02-23T02:45:51;98009.28;;;4.59;100.00
4085;BME280;2057;50.858;6.572;2024-02-23T02:48:16;98007.66;;;4.61;100.00
4085;BME280;2057;50.858;6.572;2024-02-23T02:50:44;98004.97;;;4.55;100.00
4085;BME280;2057;50.858;6.572;2024-02-23T02:53:10;97992.59;;;4.61;100.00
4085;BME280;2057;50.858;6.572;2024-02-23T02:55:44;98010.06;;;4.58;100.00
4085;BME280;2057;50.858;6.572;2024-02-23T02:58:13;98015.03;;;4.55;100.00
4085;BME280;2057;50.858;6.572;2024-02-23T03:00:42;98012.41;;;4.52;100.00
4085;BME280;2057;50.858;6.572;2024-02-23T03:03:08;98035.25;;;4.60;100.00
4085;BME280;2057;50.858;6.572;2024-02-23T03:05:33;98016.66;;;4.54;100.00
4085;BME280;2057;50.858;6.572;2024-02-23T03:07:59;98030.22;;;4.60;100.00
4085;BME280;2057;50.858;6.572;2024-02-23T03:10:26;98025.78;;;4.52;100.00
4085;BME280;2057;50.858;6.572;2024-02-23T03:12:51;98025.91;;;4.55;100.00
4085;BME280;2057;50.858;6.572;2024-02-23T03:15:20;98015.81;;;4.54;100.00
4085;BME280;2057;50.858;6.572;2024-02-23T03:17:45;98021.66;;;4.53;100.00
4085;BME280;2057;50.858;6.572;2024-02-23T03:20:13;98021.94;;;4.62;100.00
4085;BME280;2057;50.858;6.572;2024-02-23T03:22:38;98031.13;;;4.62;100.00
4085;BME280;2057;50.858;6.572;2024-02-23T03:25:04;98025.28;;;4.63;100.00
4085;BME280;2057;50.858;6.572;2024-02-23T03:27:38;98036.94;;;4.61;100.00
4085;BME280;2057;50.858;6.572;2024-02-23T03:30:04;98044.63;;;4.65;100.00
4085;BME280;2057;50.858;6.572;2024-02-23T03:32:30;98041.25;;;4.63;100.00
4085;BME280;2057;50.858;6.572;2024-02-23T03:35:05;98046.31;;;4.65;100.00
4085;BME280;2057;50.858;6.572;2024-02-23T03:37:33;98041.19;;;4.62;100.00
4085;BME280;2057;50.858;6.572;2024-02-23T03:39:58;98045.69;;;4.72;100.00
4085;BME280;2057;50.858;6.572;2024-02-23T03:42:25;98055.59;;;4.67;100.00
4085;BME280;2057;50.858;6.572;2024-02-23T03:44:51;98047.13;;;4.64;100.00
4085;BME280;2057;50.858;6.572;2024-02-23T03:47:16;98054.59;;;4.62;100.00
4085;BME280;2057;50.858;6.572;2024-02-23T03:49:42;98048.81;;;4.65;100.00
4085;BME280;2057;50.858;6.572;2024-02-23T03:52:10;98051.50;;;4.69;100.00
4085;BME280;2057;50.858;6.572;2024-02-23T03:54:38;98058.13;;;4.67;100.00
4085;BME280;2057;50.858;6.572;2024-02-23T03:57:03;98056.22;;;4.60;100.00
4085;BME280;2057;50.858;6.572;2024-02-23T03:59:29;98058.69;;;4.59;100.00
4085;BME280;2057;50.858;6.572;2024-02-23T04:01:59;98065.34;;;4.58;100.00
4085;BME280;2057;50.858;6.572;2024-02-23T04:04:24;98056.31;;;4.63;100.00
4085;BME280;2057;50.858;6.572;2024-02-23T04:06:49;98062.84;;;4.58;100.00
4085;BME280;2057;50.858;6.572;2024-02-23T04:09:17;98062.22;;;4.65;100.00
4085;BME280;2057;50.858;6.572;2024-02-23T04:11:43;98067.06;;;4.59;100.00
4085;BME280;2057;50.858;6.572;2024-02-23T04:14:08;98067.78;;;4.55;100.00
4085;BME280;2057;50.858;6.572;2024-02-23T04:16:33;98069.63;;;4.61;100.00
4085;BME280;2057;50.858;6.572;2024-02-23T04:18:59;98073.94;;;4.65;100.00
4085;BME280;2057;50.858;6.572;2024-02-23T04:21:25;98074.59;;;4.59;100.00
4085;BME280;2057;50.858;6.572;2024-02-23T04:23:50;98079.59;;;4.58;100.00
4085;BME280;2057;50.858;6.572;2024-02-23T04:26:15;98081.22;;;4.57;100.00
4085;BME280;2057;50.858;6.572;2024-02-23T04:28:43;98078.41;;;4.48;100.00
4085;BME280;2057;50.858;6.572;2024-02-23T04:31:09;98079.50;;;4.56;100.00
4085;BME280;2057;50.858;6.572;2024-02-23T04:33:35;98076.41;;;4.63;100.00
4085;BME280;2057;50.858;6.572;2024-02-23T04:36:01;98079.50;;;4.56;100.00
4085;BME280;2057;50.858;6.572;2024-02-23T04:38:28;98071.25;;;4.59;100.00
4085;BME280;2057;50.858;6.572;2024-02-23T04:40:54;98069.88;;;4.68;100.00
4085;BME280;2057;50.858;6.572;2024-02-23T04:43:19;98075.06;;;4.73;100.00
4085;BME280;2057;50.858;6.572;2024-02-23T04:45:44;98071.59;;;4.69;100.00
4085;BME280;2057;50.858;6.572;2024-02-23T04:48:10;98072.59;;;4.75;100.00
4085;BME280;2057;50.858;6.572;2024-02-23T04:50:35;98073.31;;;4.70;100.00
4085;BME280;2057;50.858;6.572;2024-02-23T04:53:00;98068.97;;;4.66;100.00
4085;BME280;2057;50.858;6.572;2024-02-23T04:55:26;98073.06;;;4.64;100.00
4085;BME280;2057;50.858;6.572;2024-02-23T04:57:54;98073.03;;;4.63;100.00
4085;BME280;2057;50.858;6.572;2024-02-23T05:00:19;98069.06;;;4.69;100.00
4085;BME280;2057;50.858;6.572;2024-02-23T05:02:45;98073.94;;;4.65;100.00
4085;BME280;2057;50.858;6.572;2024-02-23T05:05:11;98068.78;;;4.60;100.00
4085;BME280;2057;50.858;6.572;2024-02-23T05:07:42;98066.31;;;4.62;100.00
4085;BME280;2057;50.858;6.572;2024-02-23T05:10:08;98064.75;;;4.65;100.00
4085;BME280;2057;50.858;6.572;2024-02-23T05:12:35;98063.94;;;4.66;100.00
4085;BME280;2057;50.858;6.572;2024-02-23T05:15:01;98064.75;;;4.65;100.00
4085;BME280;2057;50.858;6.572;2024-02-23T05:17:29;98070.50;;;4.61;100.00
4085;BME280;2057;50.858;6.572;2024-02-23T05:19:54;98067.63;;;4.50;100.00
4085;BME280;2057;50.858;6.572;2024-02-23T05:22:19;98066.88;;;4.53;100.00
4085;BME280;2057;50.858;6.572;2024-02-23T05:24:44;98061.63;;;4.47;100.00
4085;BME280;2057;50.858;6.572;2024-02-23T05:27:10;98065.31;;;4.57;100.00
4085;BME280;2057;50.858;6.572;2024-02-23T05:29:38;98065.94;;;4.51;100.00
4085;BME280;2057;50.858;6.572;2024-02-23T05:32:04;98058.53;;;4.54;100.00
4085;BME280;2057;50.858;6.572;2024-02-23T05:34:29;98049.63;;;4.64;100.00
4085;BME280;2057;50.858;6.572;2024-02-23T05:36:55;98050.19;;;4.55;100.00
4085;BME280;2057;50.858;6.572;2024-02-23T05:39:21;98038.81;;;4.66;100.00
4085;BME280;2057;50.858;6.572;2024-02-23T05:41:49;98037.09;;;4.65;100.00
4085;BME280;2057;50.858;6.572;2024-02-23T05:44:16;98042.09;;;4.64;100.00
4085;BME280;2057;50.858;6.572;2024-02-23T05:46:42;98045.81;;;4.75;100.00
4085;BME280;2057;50.858;6.572;2024-02-23T05:49:07;98046.47;;;4.69;100.00
4085;BME280;2057;50.858;6.572;2024-02-23T05:51:34;98037.41;;;4.75;100.00
4085;BME280;2057;50.858;6.572;2024-02-23T05:54:00;98044.34;;;4.56;100.00
4085;BME280;2057;50.858;6.572;2024-02-23T05:56:25;98046.16;;;4.60;100.00
4085;BME280;2057;50.858;6.572;2024-02-23T05:58:54;98045.28;;;4.60;100.00
4085;BME280;2057;50.858;6.572;2024-02-23T06:01:19;98030.91;;;4.54;100.00
4085;BME280;2057;50.858;6.572;2024-02-23T06:03:47;98027.84;;;4.64;100.00
4085;BME280;2057;50.858;6.572;2024-02-23T06:06:13;98030.97;;;4.57;100.00
4085;BME280;2057;50.858;6.572;2024-02-23T06:08:39;98035.53;;;4.43;100.00
4085;BME280;2057;50.858;6.572;2024-02-23T06:11:04;98038.81;;;4.40;100.00
4085;BME280;2057;50.858;6.572;2024-02-23T06:13:30;98034.28;;;4.56;100.00
4085;BME280;2057;50.858;6.572;2024-02-23T06:15:56;98044.25;;;4.53;100.00
4085;BME280;2057;50.858;6.572;2024-02-23T06:18:28;98035.91;;;4.54;100.00
4085;BME280;2057;50.858;6.572;2024-02-23T06:20:56;98046.16;;;4.60;100.00
4085;BME280;2057;50.858;6.572;2024-02-23T06:23:22;98044.94;;;4.49;100.00
4085;BME280;2057;50.858;6.572;2024-02-23T06:25:47;98044.88;;;4.46;100.00
4085;BME280;2057;50.858;6.572;2024-02-23T06:28:12;98048.97;;;4.44;100.00
4085;BME280;2057;50.858;6.572;2024-02-23T06:30:38;98044.78;;;4.44;100.00
4085;BME280;2057;50.858;6.572;2024-02-23T06:33:03;98040.72;;;4.48;100.00
4085;BME280;2057;50.858;6.572;2024-02-23T06:35:29;98040.22;;;4.32;100.00
4085;BME280;2057;50.858;6.572;2024-02-23T06:37:55;98033.16;;;4.22;100.00
4085;BME280;2057;50.858;6.572;2024-02-23T06:40:22;98031.53;;;4.22;100.00
4085;BME280;2057;50.858;6.572;2024-02-23T06:42:51;98045.22;;;4.32;100.00
4085;BME280;2057;50.858;6.572;2024-02-23T06:45:21;98039.41;;;4.33;100.00
4085;BME280;2057;50.858;6.572;2024-02-23T06:47:50;98040.31;;;4.35;100.00
4085;BME280;2057;50.858;6.572;2024-02-23T06:50:16;98041.81;;;4.30;100.00
4085;BME280;2057;50.858;6.572;2024-02-23T06:52:41;98049.66;;;4.39;100.00
4085;BME280;2057;50.858;6.572;2024-02-23T06:55:09;98048.84;;;4.40;100.00
4085;BME280;2057;50.858;6.572;2024-02-23T06:57:35;98046.66;;;4.50;100.00
4085;BME280;2057;50.858;6.572;2024-02-23T07:00:02;98045.75;;;4.48;100.00
4085;BME280;2057;50.858;6.572;2024-02-23T07:02:27;98045.28;;;4.60;100.00
4085;BME280;2057;50.858;6.572;2024-02-23T07:04:56;98046.16;;;4.60;100.00
4085;BME280;2057;50.858;6.572;2024-02-23T07:07:23;98040.13;;;4.55;100.00
4085;BME280;2057;50.858;6.572;2024-02-23T07:09:49;98034.28;;;4.56;100.00
4085;BME280;2057;50.858;6.572;2024-02-23T07:12:15;98039.53;;;4.62;100.00
4085;BME280;2057;50.858;6.572;2024-02-23T07:14:40;98033.94;;;4.71;100.00
4085;BME280;2057;50.858;6.572;2024-02-23T07:17:06;98039.06;;;4.74;100.00
4085;BME280;2057;50.858;6.572;2024-02-23T07:19:33;98043.34;;;4.77;100.00
4085;BME280;2057;50.858;6.572;2024-02-23T07:21:58;98040.81;;;4.77;100.00
4085;BME280;2057;50.858;6.572;2024-02-23T07:24:24;98040.03;;;4.78;100.00
4085;BME280;2057;50.858;6.572;2024-02-23T07:26:49;98043.53;;;4.83;100.00
4085;BME280;2057;50.858;6.572;2024-02-23T07:29:14;98044.44;;;4.85;100.00
4085;BME280;2057;50.858;6.572;2024-02-23T07:31:40;98051.56;;;4.98;100.00
4085;BME280;2057;50.858;6.572;2024-02-23T07:34:05;98054.09;;;4.98;100.00
4085;BME280;2057;50.858;6.572;2024-02-23T07:36:30;98040.69;;;4.99;100.00
4085;BME280;2057;50.858;6.572;2024-02-23T07:38:58;98042.69;;;5.10;100.00
4085;BME280;2057;50.858;6.572;2024-02-23T07:41:23;98048.63;;;5.12;100.00
4085;BME280;2057;50.858;6.572;2024-02-23T07:43:57;98065.59;;;5.19;100.00
4085;BME280;2057;50.858;6.572;2024-02-23T07:46:23;98067.28;;;5.18;100.00
4085;BME280;2057;50.858;6.572;2024-02-23T07:48:48;98064.78;;;5.20;100.00
4085;BME280;2057;50.858;6.572;2024-02-23T07:51:14;98080.06;;;5.26;100.00
4085;BME280;2057;50.858;6.572;2024-02-23T07:53:39;98082.94;;;5.37;100.00
4085;BME280;2057;50.858;6.572;2024-02-23T07:56:07;98081.44;;;5.44;100.00
4085;BME280;2057;50.858;6.572;2024-02-23T07:58:32;98085.66;;;5.45;100.00
4085;BME280;2057;50.858;6.572;2024-02-23T08:00:58;98085.47;;;5.39;100.00
4085;BME280;2057;50.858;6.572;2024-02-23T08:03:26;98083.72;;;5.36;100.00
4085;BME280;2057;50.858;6.572;2024-02-23T08:05:51;98088.22;;;5.46;100.00
4085;BME280;2057;50.858;6.572;2024-02-23T08:08:16;98094.28;;;5.53;100.00
4085;BME280;2057;50.858;6.572;2024-02-23T08:10:42;98085.78;;;5.49;100.00
4085;BME280;2057;50.858;6.572;2024-02-23T08:13:07;98070.66;;;5.48;100.00
4085;BME280;2057;50.858;6.572;2024-02-23T08:15:35;98075.59;;;5.45;99.48
4085;BME280;2057;50.858;6.572;2024-02-23T08:18:01;98069.78;;;5.47;99.46
4085;BME280;2057;50.858;6.572;2024-02-23T08:20:26;98082.63;;;5.55;98.71
4085;BME280;2057;50.858;6.572;2024-02-23T08:22:51;98080.34;;;5.63;100.00
4085;BME280;2057;50.858;6.572;2024-02-23T08:25:17;98082.00;;;5.64;100.00
4085;BME280;2057;50.858;6.572;2024-02-23T08:27:43;98084.63;;;5.67;99.17
4085;BME280;2057;50.858;6.572;2024-02-23T08:30:09;98087.28;;;5.72;99.69
4085;BME280;2057;50.858;6.572;2024-02-23T08:32:38;98093.84;;;5.67;100.00
4085;BME280;2057;50.858;6.572;2024-02-23T08:35:04;98086.66;;;5.79;99.17
4085;BME280;2057;50.858;6.572;2024-02-23T08:37:29;98090.38;;;5.92;98.42
4085;BME280;2057;50.858;6.572;2024-02-23T08:39:55;98089.81;;;6.01;98.20
4085;BME280;2057;50.858;6.572;2024-02-23T08:42:21;98091.59;;;6.05;98.58
4085;BME280;2057;50.858;6.572;2024-02-23T08:44:49;98100.75;;;6.03;98.36
4085;BME280;2057;50.858;6.572;2024-02-23T08:47:14;98100.97;;;6.09;99.53
4085;BME280;2057;50.858;6.572;2024-02-23T08:49:40;98090.94;;;6.12;97.78
4085;BME280;2057;50.858;6.572;2024-02-23T08:52:05;98103.47;;;6.09;97.68
4085;BME280;2057;50.858;6.572;2024-02-23T08:54:31;98108.41;;;6.06;96.29
4085;BME280;2057;50.858;6.572;2024-02-23T08:56:58;98097.44;;;6.04;96.07
4085;BME280;2057;50.858;6.572;2024-02-23T08:59:24;98104.97;;;6.02;94.32
4085;BME280;2057;50.858;6.572;2024-02-23T09:01:49;98102.28;;;5.97;97.13
4085;BME280;2057;50.858;6.572;2024-02-23T09:04:14;98092.41;;;6.04;94.18
4085;BME280;2057;50.858;6.572;2024-02-23T09:06:40;98098.06;;;5.96;95.91
4085;BME280;2057;50.858;6.572;2024-02-23T09:09:05;98091.47;;;6.00;95.62
4085;BME280;2057;50.858;6.572;2024-02-23T09:11:31;98098.25;;;6.03;96.27
4085;BME280;2057;50.858;6.572;2024-02-23T09:13:56;98099.41;;;6.14;95.37
4085;BME280;2057;50.858;6.572;2024-02-23T09:16:24;98093.09;;;6.28;95.62
4085;BME280;2057;50.858;6.572;2024-02-23T09:18:50;98092.44;;;6.36;95.44
4085;BME280;2057;50.858;6.572;2024-02-23T09:21:18;98098.47;;;6.42;96.36
4085;BME280;2057;50.858;6.572;2024-02-23T09:23:46;98099.25;;;6.40;96.55
4085;BME280;2057;50.858;6.572;2024-02-23T09:26:12;98115.44;;;6.48;95.42
4085;BME280;2057;50.858;6.572;2024-02-23T09:28:40;98111.41;;;6.55;96.02
4085;BME280;2057;50.858;6.572;2024-02-23T09:31:10;98115.53;;;6.51;93.70
4085;BME280;2057;50.858;6.572;2024-02-23T09:33:35;98114.97;;;6.62;93.55
4085;BME280;2057;50.858;6.572;2024-02-23T09:36:03;98107.34;;;6.60;95.02
4085;BME280;2057;50.858;6.572;2024-02-23T09:38:29;98116.00;;;6.70;96.13
4085;BME280;2057;50.858;6.572;2024-02-23T09:40:54;98104.22;;;6.69;95.32
4085;BME280;2057;50.858;6.572;2024-02-23T09:43:23;98102.75;;;6.77;94.12
4085;BME280;2057;50.858;6.572;2024-02-23T09:45:51;98105.13;;;6.71;90.89
4085;BME280;2057;50.858;6.572;2024-02-23T09:48:20;98097.72;;;6.79;93.53
4085;BME280;2057;50.858;6.572;2024-02-23T09:50:47;98105.50;;;6.88;90.62
4085;BME280;2057;50.858;6.572;2024-02-23T09:53:13;98112.41;;;6.95;90.10
4085;BME280;2057;50.858;6.572;2024-02-23T09:55:39;98109.72;;;6.87;90.02
4085;BME280;2057;50.858;6.572;2024-02-23T09:58:06;98103.19;;;6.96;86.75
4085;BME280;2057;50.858;6.572;2024-02-23T10:00:34;98100.84;;;7.03;87.89
4085;BME280;2057;50.858;6.572;2024-02-23T10:03:02;98104.59;;;7.19;89.92
4085;BME280;2057;50.858;6.572;2024-02-23T10:05:30;98112.28;;;7.24;87.60
4085;BME280;2057;50.858;6.572;2024-02-23T10:07:57;98116.78;;;7.37;88.19
4085;BME280;2057;50.858;6.572;2024-02-23T10:10:32;98109.78;;;7.26;87.74
4085;BME280;2057;50.858;6.572;2024-02-23T10:12:59;98098.72;;;7.19;87.63
4085;BME280;2057;50.858;6.572;2024-02-23T10:15:27;98108.03;;;7.23;90.41
4085;BME280;2057;50.858;6.572;2024-02-23T10:17:59;98108.81;;;7.20;90.20
4085;BME280;2057;50.858;6.572;2024-02-23T10:20:29;98117.41;;;7.27;87.75
4085;BME280;2057;50.858;6.572;2024-02-23T10:22:54;98112.47;;;7.32;88.44
4085;BME280;2057;50.858;6.572;2024-02-23T10:25:22;98111.34;;;7.20;87.57
4085;BME280;2057;50.858;6.572;2024-02-23T10:27:48;98107.00;;;7.15;88.96
4085;BME280;2057;50.858;6.572;2024-02-23T10:30:14;98103.13;;;7.29;87.16
4085;BME280;2057;50.858;6.572;2024-02-23T10:32:42;98118.09;;;7.58;87.09
4085;BME280;2057;50.858;6.572;2024-02-23T10:35:13;98108.78;;;7.56;86.50
4085;BME280;2057;50.858;6.572;2024-02-23T10:37:42;98124.44;;;7.41;87.28
4085;BME280;2057;50.858;6.572;2024-02-23T10:40:11;98123.19;;;7.25;90.70
4085;BME280;2057;50.858;6.572;2024-02-23T10:42:38;98124.66;;;7.15;91.22
4085;BME280;2057;50.858;6.572;2024-02-23T10:45:05;98129.50;;;7.07;90.66
4085;BME280;2057;50.858;6.572;2024-02-23T10:47:34;98124.44;;;7.05;92.24
4085;BME280;2057;50.858;6.572;2024-02-23T10:50:00;98139.47;;;7.01;91.87
4085;BME280;2057;50.858;6.572;2024-02-23T10:52:30;98145.50;;;7.06;92.94
4085;BME280;2057;50.858;6.572;2024-02-23T10:54:57;98147.16;;;7.07;93.76
4085;BME280;2057;50.858;6.572;2024-02-23T10:57:30;98134.66;;;7.12;92.10
4085;BME280;2057;50.858;6.572;2024-02-23T10:59:58;98133.03;;;7.12;91.17
4085;BME280;2057;50.858;6.572;2024-02-23T11:02:27;98129.59;;;7.10;90.34
4085;BME280;2057;50.858;6.572;2024-02-23T11:04:55;98153.34;;;7.18;90.08
4085;BME280;2057;50.858;6.572;2024-02-23T11:07:24;98126.56;;;7.24;88.67
4085;BME280;2057;50.858;6.572;2024-02-23T11:10:14;98135.28;;;7.36;90.04
4085;BME280;2057;50.858;6.572;2024-02-23T11:12:40;98139.59;;;7.42;88.29
4085;BME280;2057;50.858;6.572;2024-02-23T11:15:05;98141.38;;;7.46;90.54
4085;BME280;2057;50.858;6.572;2024-02-23T11:17:38;98128.63;;;7.40;91.24
4085;BME280;2057;50.858;6.572;2024-02-23T11:20:06;98131.97;;;7.39;91.98
4085;BME280;2057;50.858;6.572;2024-02-23T11:22:34;98132.81;;;7.40;92.28
4085;BME280;2057;50.858;6.572;2024-02-23T11:25:07;98134.41;;;7.36;89.79
4085;BME280;2057;50.858;6.572;2024-02-23T11:27:39;98138.88;;;7.46;90.86
4085;BME280;2057;50.858;6.572;2024-02-23T11:30:09;98125.56;;;7.53;91.23
4085;BME280;2057;50.858;6.572;2024-02-23T11:32:39;98129.75;;;7.53;89.55
4085;BME280;2057;50.858;6.572;2024-02-23T11:35:06;98127.16;;;7.50;88.48
4085;BME280;2057;50.858;6.572;2024-02-23T11:37:32;98131.38;;;7.49;88.66
4085;BME280;2057;50.858;6.572;2024-02-23T11:39:59;98137.22;;;7.48;88.39
4085;BME280;2057;50.858;6.572;2024-02-23T11:42:29;98128.00;;;7.50;90.85
4085;BME280;2057;50.858;6.572;2024-02-23T11:44:56;98129.03;;;7.59;89.32
4085;BME280;2057;50.858;6.572;2024-02-23T11:47:23;98128.88;;;7.51;89.66
4085;BME280;2057;50.858;6.572;2024-02-23T11:49:49;98110.38;;;7.52;88.27
4085;BME280;2057;50.858;6.572;2024-02-23T11:52:14;98140.69;;;7.53;86.03
4085;BME280;2057;50.858;6.572;2024-02-23T11:54:40;98128.16;;;7.57;85.91
4085;BME280;2057;50.858;6.572;2024-02-23T11:57:06;98123.97;;;7.59;88.26
4085;BME280;2057;50.858;6.572;2024-02-23T11:59:32;98131.50;;;7.56;86.77
4085;BME280;2057;50.858;6.572;2024-02-23T12:01:57;98118.06;;;7.57;85.16
4085;BME280;2057;50.858;6.572;2024-02-23T12:04:23;98131.53;;;7.59;86.02
4085;BME280;2057;50.858;6.572;2024-02-23T12:06:48;98128.28;;;7.63;85.31
4085;BME280;2057;50.858;6.572;2024-02-23T12:09:14;98126.69;;;7.68;87.56
4085;BME280;2057;50.858;6.572;2024-02-23T12:11:40;98130.19;;;7.72;86.79
4085;BME280;2057;50.858;6.572;2024-02-23T12:14:06;98131.97;;;7.77;85.78
4085;BME280;2057;50.858;6.572;2024-02-23T12:16:34;98127.16;;;7.88;83.28
4085;BME280;2057;50.858;6.572;2024-02-23T12:19:01;98131.56;;;7.98;84.12
4085;BME280;2057;50.858;6.572;2024-02-23T12:21:28;98119.81;;;8.00;85.87
4085;BME280;2057;50.858;6.572;2024-02-23T12:23:53;98115.69;;;8.04;85.62
4085;BME280;2057;50.858;6.572;2024-02-23T12:26:19;98120.63;;;7.99;85.63
4085;BME280;2057;50.858;6.572;2024-02-23T12:28:44;98111.63;;;8.12;86.41
4085;BME280;2057;50.858;6.572;2024-02-23T12:31:12;98114.47;;;8.28;84.32
4085;BME280;2057;50.858;6.572;2024-02-23T12:33:38;98116.94;;;8.26;83.55
4085;BME280;2057;50.858;6.572;2024-02-23T12:36:10;98122.69;;;8.18;81.54
4085;BME280;2057;50.858;6.572;2024-02-23T12:38:36;98114.44;;;8.26;83.76
4085;BME280;2057;50.858;6.572;2024-02-23T12:41:02;98115.38;;;8.31;82.17
4085;BME280;2057;50.858;6.572;2024-02-23T12:43:28;98111.09;;;8.29;84.59
4085;BME280;2057;50.858;6.572;2024-02-23T12:45:53;98111.56;;;8.51;86.79
4085;BME280;2057;50.858;6.572;2024-02-23T12:48:20;98107.38;;;8.53;81.41
4085;BME280;2057;50.858;6.572;2024-02-23T12:50:46;98112.66;;;8.65;80.99
4085;BME280;2057;50.858;6.572;2024-02-23T12:53:31;98121.88;;;8.63;78.71
4085;BME280;2057;50.858;6.572;2024-02-23T12:56:02;98112.88;;;8.77;80.86
4085;BME280;2057;50.858;6.572;2024-02-23T12:58:28;98104.13;;;8.60;79.19
4085;BME280;2057;50.858;6.572;2024-02-23T13:00:53;98110.44;;;8.84;81.01
4085;BME280;2057;50.858;6.572;2024-02-23T13:03:24;98102.50;;;8.63;79.92
4085;BME280;2057;50.858;6.572;2024-02-23T13:05:52;98110.34;;;8.77;81.78
4085;BME280;2057;50.858;6.572;2024-02-23T13:08:17;98100.94;;;8.70;77.52
4085;BME280;2057;50.858;6.572;2024-02-23T13:10:43;98101.78;;;8.69;80.29
4085;BME280;2057;50.858;6.572;2024-02-23T13:13:14;98108.88;;;8.92;82.25
4085;BME280;2057;50.858;6.572;2024-02-23T13:15:42;98107.84;;;8.79;80.97
4085;BME280;2057;50.858;6.572;2024-02-23T13:18:08;98115.06;;;8.59;79.36
4085;BME280;2057;50.858;6.572;2024-02-23T13:20:34;98109.03;;;8.51;81.36
4085;BME280;2057;50.858;6.572;2024-02-23T13:22:59;98110.94;;;8.64;82.59
4085;BME280;2057;50.858;6.572;2024-02-23T13:25:27;98097.22;;;8.51;80.95
4085;BME280;2057;50.858;6.572;2024-02-23T13:27:53;98097.28;;;8.54;81.36
4085;BME280;2057;50.858;6.572;2024-02-23T13:30:18;98106.66;;;8.60;81.86
4085;BME280;2057;50.858;6.572;2024-02-23T13:32:44;98095.34;;;8.90;80.89
4085;BME280;2057;50.858;6.572;2024-02-23T13:35:10;98100.03;;;9.19;79.70
4085;BME280;2057;50.858;6.572;2024-02-23T13:37:35;98090.00;;;9.25;79.74
4085;BME280;2057;50.858;6.572;2024-02-23T13:40:00;98089.09;;;9.21;78.25
4085;BME280;2057;50.858;6.572;2024-02-23T13:42:26;98092.25;;;9.06;77.88
4085;BME280;2057;50.858;6.572;2024-02-23T13:44:51;98092.97;;;8.98;80.72
4085;BME280;2057;50.858;6.572;2024-02-23T13:47:19;98098.09;;;9.04;78.27
4085;BME280;2057;50.858;6.572;2024-02-23T13:49:44;98100.09;;;9.22;78.71
4085;BME280;2057;50.858;6.572;2024-02-23T13:52:12;98103.47;;;9.24;79.33
4085;BME280;2057;50.858;6.572;2024-02-23T13:54:39;98103.00;;;9.50;79.40
4085;BME280;2057;50.858;6.572;2024-02-23T13:57:08;98098.00;;;9.53;79.70
4085;BME280;2057;50.858;6.572;2024-02-23T13:59:33;98104.28;;;9.20;79.95
4085;BME280;2057;50.858;6.572;2024-02-23T14:01:58;98106.19;;;8.81;78.64
4085;BME280;2057;50.858;6.572;2024-02-23T14:04:24;98106.84;;;8.69;79.96
4085;BME280;2057;50.858;6.572;2024-02-23T14:06:49;98105.06;;;8.65;82.25
4085;BME280;2057;50.858;6.572;2024-02-23T14:09:14;98100.78;;;8.61;84.11
4085;BME280;2057;50.858;6.572;2024-02-23T14:11:40;98104.22;;;8.65;82.99
4085;BME280;2057;50.858;6.572;2024-02-23T14:14:05;98103.25;;;8.58;82.61
4085;BME280;2057;50.858;6.572;2024-02-23T14:16:34;98103.16;;;8.52;84.02
4085;BME280;2057;50.858;6.572;2024-02-23T14:19:02;98102.03;;;8.85;84.53
4085;BME280;2057;50.858;6.572;2024-02-23T14:21:27;98095.25;;;8.82;85.83
4085;BME280;2057;50.858;6.572;2024-02-23T14:23:56;98100.06;;;8.70;84.78
4085;BME280;2057;50.858;6.572;2024-02-23T14:26:21;98095.88;;;8.70;87.36
4085;BME280;2057;50.858;6.572;2024-02-23T14:28:47;98097.19;;;8.48;88.20
4085;BME280;2057;50.858;6.572;2024-02-23T14:31:12;98102.94;;;8.42;87.43
4085;BME280;2057;50.858;6.572;2024-02-23T14:33:37;98101.31;;;8.44;90.17
4085;BME280;2057;50.858;6.572;2024-02-23T14:36:03;98096.91;;;8.36;92.03
4085;BME280;2057;50.858;6.572;2024-02-23T14:38:31;98107.84;;;8.35;90.47
4085;BME280;2057;50.858;6.572;2024-02-23T14:40:56;98111.16;;;8.32;88.18
4085;BME280;2057;50.858;6.572;2024-02-23T14:43:22;98109.47;;;8.31;86.10
4085;BME280;2057;50.858;6.572;2024-02-23T14:45:47;98110.38;;;8.35;86.86
4085;BME280;2057;50.858;6.572;2024-02-23T14:48:16;98106.13;;;8.32;86.02
4085;BME280;2057;50.858;6.572;2024-02-23T14:50:41;98109.63;;;8.40;88.79
4085;BME280;2057;50.858;6.572;2024-02-23T14:53:06;98100.44;;;8.45;88.31
4085;BME280;2057;50.858;6.572;2024-02-23T14:55:33;98104.88;;;8.54;87.94
4085;BME280;2057;50.858;6.572;2024-02-23T14:58:00;98111.06;;;8.70;88.94
4085;BME280;2057;50.858;6.572;2024-02-23T15:00:25;98107.63;;;8.67;87.70
4085;BME280;2057;50.858;6.572;2024-02-23T15:02:55;98114.75;;;8.43;87.73
4085;BME280;2057;50.858;6.572;2024-02-23T15:05:22;98117.13;;;8.36;88.98
4085;BME280;2057;50.858;6.572;2024-02-23T15:07:47;98113.69;;;8.32;87.94
4085;BME280;2057;50.858;6.572;2024-02-23T15:10:13;98123.00;;;8.33;87.98
4085;BME280;2057;50.858;6.572;2024-02-23T15:12:38;98122.28;;;8.40;87.20
4085;BME280;2057;50.858;6.572;2024-02-23T15:15:04;98115.00;;;8.56;86.88